SondeTracker

Meteorological Radiosondes Database

Operations

Sounding was ended - last measurement: 2022-12-07 13:33:32z

MAP
About Radiosonde

Number: ME9202666 (107-2-02666)

Launch Site: Biscarrosse (FR)

Type: M20

AUX: NO

Frequency: 405.600 MHz

Max Speed: 117 km/h at 10733 m

Average Speed: 60.20 km/h

Max Altitude: 17233 m

Average Ascent Speed: 0.00 m/s

Average Descent Speed: 7.68 m/s

Status: UNKNOWN

Status Changes
Launch Site Type AUX Frequency Status Finder Landing Point Description Changes made by
APRS Statistics

Received Frames: 76

First Frame [UTC]: 2022-12-07 13:00:02z

Last Frame [UTC]: 2022-12-07 13:33:32z

Receivers: EA1JAY-15, F4ERG-RS, F4IKI, F4IPA

Flight Time: 00:33:30 h

Distance From First Measurement: 32.68 km

Nearest City: Langon (FR) [26.12 km]

Nearest Hunter: swl-180 [23.56 km]

Ground Altitude: 92 m

Distance from QTH: 0.00 km

APRS Data
Receiver Number Date/Time [UTC] φ λ Course [°] Speed [km/h] Altitude [m] Description
F4ERG-RSME92026662022-12-07 13:33:3244.3193-0.280509122131797Clb=-10.7m/s t=1.8C h=83.3% p=821.8hPa 405.605 MHz Type=M20 ser=107-2-02666 Radiosonde
F4ERG-RSME92026662022-12-07 13:33:0144.3194-0.280731119151861Clb=-10.2m/s t=1.1C h=85.4% p=815.3hPa 405.605 MHz Type=M20 ser=107-2-02666 Radiosonde
F4ERG-RSME92026662022-12-07 13:32:3044.32-0.28207115202130Clb=-10.5m/s t=-1.5C h=90.7% p=787.8hPa 405.605 MHz Type=M20 ser=107-2-02666 Radiosonde
F4ERG-RSME92026662022-12-07 13:31:5844.3208-0.283711154172473Clb=-10.9m/s t=0.1C h=44.1% p=754.1hPa 405.605 MHz Type=M20 ser=107-2-02666 Radiosonde
F4ERG-RSME92026662022-12-07 13:31:2744.3221-0.28563123242929Clb=-10.1m/s t=-3.8C h=61.7% p=712.5hPa 405.604 MHz Type=M20 ser=107-2-02666 Radiosonde
F4ERG-RSME92026662022-12-07 13:30:5644.3228-0.28748108173176Clb=-9.8m/s t=-6.1C h=72.2% p=690.1hPa 405.604 MHz Type=M20 ser=107-2-02666 Radiosonde
F4ERG-RSME92026662022-12-07 13:30:2544.3229-0.28982192263440Clb=-10.9m/s t=-8.6C h=83.3% p=667.2hPa 405.604 MHz Type=M20 ser=107-2-02666 Radiosonde
F4ERG-RSME92026662022-12-07 13:29:5444.3227-0.29300991333789Clb=-9.7m/s t=-7.9C h=15.9% p=637.8hPa 405.604 MHz Type=M20 ser=107-2-02666 Radiosonde
F4ERG-RSME92026662022-12-07 13:29:2344.323-0.296789101354115Clb=-12.6m/s t=-10.0C h=14.9% p=611.1hPa 405.604 MHz Type=M20 ser=107-2-02666 Radiosonde
F4ERG-RSME92026662022-12-07 13:28:5244.3239-0.3043389334782Clb=-12.1m/s t=-14.4C h=18.8% p=559.8hPa 405.604 MHz Type=M20 ser=107-2-02666 Radiosonde
F4ERG-RSME92026662022-12-07 13:25:4644.3262-0.32904999506441Clb=-9.5m/s t=-27.8C h=35.8% p=446.5hPa 405.603 MHz Type=M20 ser=107-2-02666 Radiosonde
F4ERG-RSME92026662022-12-07 13:25:1544.3265-0.3343996486737Clb=-9.9m/s t=-30.0C h=33.5% p=428.4hPa 405.603 MHz Type=M20 ser=107-2-02666 Radiosonde
F4ERG-RSME92026662022-12-07 13:24:4444.327-0.3406198467099Clb=-9.1m/s t=-32.6C h=54.9% p=406.6hPa 405.603 MHz Type=M20 ser=107-2-02666 Radiosonde
F4ERG-RSME92026662022-12-07 13:24:1344.3275-0.3457297487390Clb=-8.5m/s t=-35.1C h=58.4% p=389.9hPa 405.602 MHz Type=M20 ser=107-2-02666 Radiosonde
F4ERG-RSME92026662022-12-07 13:23:4244.3276-0.34974983547560Clb=-4.1m/s t=-36.6C h=57.8% p=380.3hPa 405.602 MHz Type=M20 ser=107-2-02666 Radiosonde
F4ERG-RSME92026662022-12-07 13:23:1044.3273-0.3557892677697Clb=-5.6m/s t=-37.9C h=60.1% p=372.6hPa 405.602 MHz Type=M20 ser=107-2-02666 Radiosonde
F4ERG-RSME92026662022-12-07 13:22:3944.3268-0.3618372487838Clb=-5.8m/s t=-39.1C h=71.1% p=364.8hPa 405.602 MHz Type=M20 ser=107-2-02666 Radiosonde
F4ERG-RSME92026662022-12-07 13:22:0844.3263-0.36834187697990Clb=-4.7m/s t=-40.4C h=63.2% p=356.9hPa 405.602 MHz Type=M20 ser=107-2-02666 Radiosonde
F4ERG-RSME92026662022-12-07 13:21:3744.3263-0.3762692808148Clb=-1.0m/s t=-40.8C h=34.5% p=348.5hPa 405.602 MHz Type=M20 ser=107-2-02666 Radiosonde
F4ERG-RSME92026662022-12-07 13:21:0644.3264-0.384049100748297Clb=-5.3m/s t=-42.3C h=54.1% p=340.9hPa 405.602 MHz Type=M20 ser=107-2-02666 Radiosonde
F4ERG-RSME92026662022-12-07 13:20:3644.3267-0.39213992748467Clb=-5.3m/s t=-43.7C h=56.3% p=332.6hPa 405.601 MHz Type=M20 ser=107-2-02666 Radiosonde
F4ERG-RSME92026662022-12-07 13:20:0644.3269-0.39986181808638Clb=-5.4m/s t=-45.3C h=58.2% p=324.0hPa 405.601 MHz Type=M20 ser=107-2-02666 Radiosonde
F4ERG-RSME92026662022-12-07 13:19:3344.327-0.4083191708803Clb=-5.6m/s t=-46.8C h=51.3% p=315.9hPa 405.601 MHz Type=M20 ser=107-2-02666 Radiosonde
F4ERG-RSME92026662022-12-07 13:19:0244.3263-0.41658184918972Clb=-5.4m/s t=-48.1C h=52.5% p=307.7hPa 405.601 MHz Type=M20 ser=107-2-02666 Radiosonde
F4ERG-RSME92026662022-12-07 13:18:3144.3262-0.42547184729139Clb=-5.5m/s t=-49.7C h=47.9% p=299.8hPa 405.601 MHz Type=M20 ser=107-2-02666 Radiosonde
F4IKIME92026662022-12-07 13:18:0344.3255-0.4326380729299Clb=-5.5m/s t=-51.1C h=40.7% p=292.5hPa 405.597 MHz Type=M20 ser=107-2-02666 Radiosonde
F4ERG-RSME92026662022-12-07 13:18:0144.3254-0.43313979749310Clb=-5.6m/s t=-51.2C h=40.2% p=292.0hPa 405.600 MHz Type=M20 ser=107-2-02666 Radiosonde
F4ERG-RSME92026662022-12-07 13:17:2944.3244-0.4422687949484Clb=-5.3m/s t=-52.0C h=33.6% p=284.2hPa 405.600 MHz Type=M20 ser=107-2-02666 Radiosonde
F4ERG-RSME92026662022-12-07 13:16:5844.3246-0.45150979839658Clb=-5.6m/s t=-53.0C h=31.0% p=276.7hPa 405.600 MHz Type=M20 ser=107-2-02666 Radiosonde
F4IKIME92026662022-12-07 13:16:3044.3243-0.46028987819817Clb=-5.6m/s t=-54.0C h=27.9% p=269.8hPa 405.600 MHz Type=M20 ser=107-2-02666 Radiosonde
F4ERG-RSME92026662022-12-07 13:16:2744.3243-0.4611387789834Clb=-5.3m/s t=-54.2C h=27.9% p=269.1hPa 405.600 MHz Type=M20 ser=107-2-02666 Radiosonde
F4IKIME92026662022-12-07 13:15:5944.3233-0.470249891009995Clb=-5.5m/s t=-55.0C h=25.9% p=262.3hPa 405.597 MHz Type=M20 ser=107-2-02666 Radiosonde
F4ERG-RSME92026662022-12-07 13:15:5644.3233-0.47096889610006Clb=-5.6m/s t=-55.0C h=25.8% p=261.8hPa 405.600 MHz Type=M20 ser=107-2-02666 Radiosonde
F4ERG-RSME92026662022-12-07 13:15:2544.3235-0.48035887410182Clb=-5.6m/s t=-55.7C h=23.3% p=254.7hPa 405.600 MHz Type=M20 ser=107-2-02666 Radiosonde
F4ERG-RSME92026662022-12-07 13:14:5444.3232-0.49026949810358Clb=-5.9m/s t=-55.0C h=25.2% p=247.8hPa 405.600 MHz Type=M20 ser=107-2-02666 Radiosonde
F4ERG-RSME92026662022-12-07 13:14:2244.3227-0.500447410710542Clb=-6.3m/s t=-56.3C h=26.6% p=240.6hPa 405.600 MHz Type=M20 ser=107-2-02666 Radiosonde
F4ERG-RSME92026662022-12-07 13:13:5244.3218-0.513199111710733Clb=-6.0m/s t=-57.1C h=23.2% p=233.4hPa 405.600 MHz Type=M20 ser=107-2-02666 Radiosonde
F4ERG-RSME92026662022-12-07 13:13:5144.3218-0.5241798110910923Clb=-6.2m/s t=-57.7C h=18.5% p=226.3hPa 405.600 MHz Type=M20 ser=107-2-02666 Radiosonde
F4ERG-RSME92026662022-12-07 13:13:5044.3219-0.5370499910711128Clb=-6.7m/s t=-58.8C h=11.0% p=219.2hPa 405.600 MHz Type=M20 ser=107-2-02666 Radiosonde
F4IKIME92026662022-12-07 13:13:4944.3234-0.5474410210011307Clb=-6.4m/s t=-59.2C h=5.3% p=212.9hPa 405.597 MHz Type=M20 ser=107-2-02666 Radiosonde
F4ERG-RSME92026662022-12-07 13:13:4844.3236-0.54847110310011326Clb=-7.1m/s t=-59.3C h=4.9% p=212.2hPa 405.600 MHz Type=M20 ser=107-2-02666 Radiosonde
F4IKIME92026662022-12-07 13:13:0244.3256-0.57032998711805Clb=-6.3m/s t=-58.3C h=1.3% p=196.4hPa 405.597 MHz Type=M20 ser=107-2-02666 Radiosonde
EA1JAY-15ME92026662022-12-07 13:12:3544.3265-0.5753411106911930Clb=-6.5m/s 405.603MHz Type=M20 ser=107-2-02666 rdzTTGOsonde
EA1JAY-15ME92026662022-12-07 13:12:0444.3266-0.582359767012170Clb=-6.3m/s 405.603MHz Type=M20 ser=107-2-02666 rdzTTGOsonde
EA1JAY-15ME92026662022-12-07 13:11:3544.3262-0.592593958712411Clb=-7.2m/s 405.603MHz Type=M20 ser=107-2-02666 rdzTTGOsonde
EA1JAY-15ME92026662022-12-07 13:11:1144.327-0.5995461005912600Clb=-6.9m/s 405.603MHz Type=M20 ser=107-2-02666 rdzTTGOsonde
EA1JAY-15ME92026662022-12-07 13:10:5244.3275-0.603582956112736Clb=-7.1m/s 405.603MHz Type=M20 ser=107-2-02666 rdzTTGOsonde
F4IKIME92026662022-12-07 13:10:5144.3276-0.604821005712777Clb=-6.8m/s t=-55.8C h=0.0% p=168.1hPa 405.600 MHz Type=M20 ser=107-2-02666 Radiosonde
EA1JAY-15ME92026662022-12-07 13:10:2744.3283-0.6093611036312929Clb=-7.2m/s 405.603MHz Type=M20 ser=107-2-02666 rdzTTGOsonde
F4IKIME92026662022-12-07 13:10:2244.3293-0.6141191146113082Clb=-6.5m/s t=-56.1C h=0.0% p=160.1hPa 405.597 MHz Type=M20 ser=107-2-02666 Radiosonde
EA1JAY-15ME92026662022-12-07 13:10:0544.3295-0.6145091125913096Clb=-7.2m/s 405.603MHz Type=M20 ser=107-2-02666 rdzTTGOsonde
EA1JAY-15ME92026662022-12-07 13:09:4344.3302-0.618117995013247Clb=-7.4m/s 405.603MHz Type=M20 ser=107-2-02666 rdzTTGOsonde
EA1JAY-15ME92026662022-12-07 13:09:0544.3297-0.625341908113493Clb=-8.1m/s 405.603MHz Type=M20 ser=107-2-02666 rdzTTGOsonde
F4IPAME92026662022-12-07 13:08:5044.3303-0.629851057413621Clb=-7.4m/s t=-56.9C h=0.0% p=146.7hPa 405.599 MHz Type=M20 ser=107-2-02666 Radiosonde
EA1JAY-15ME92026662022-12-07 13:08:4344.3304-0.6305621096913643Clb=-7.6m/s 405.603MHz Type=M20 ser=107-2-02666 rdzTTGOsonde
EA1JAY-15ME92026662022-12-07 13:08:2244.3315-0.6347751074813804Clb=-7.6m/s 405.603MHz Type=M20 ser=107-2-02666 rdzTTGOsonde
F4IPAME92026662022-12-07 13:08:1744.3317-0.635831034313856Clb=-7.4m/s t=-56.5C h=0.0% p=141.2hPa 405.599 MHz Type=M20 ser=107-2-02666 Radiosonde
F4IKIME92026662022-12-07 13:08:1144.3318-0.63737894613933Clb=-7.7m/s t=-56.8C h=0.0% p=139.5hPa 405.597 MHz Type=M20 ser=107-2-02666 Radiosonde
EA1JAY-15ME92026662022-12-07 13:07:5944.3318-0.638007874613965Clb=-8.3m/s 405.603MHz Type=M20 ser=107-2-02666 rdzTTGOsonde
F4IKIME92026662022-12-07 13:07:3944.3317-0.64154915014119Clb=-7.4m/s t=-57.7C h=0.0% p=135.3hPa 405.600 MHz Type=M20 ser=107-2-02666 Radiosonde
EA1JAY-15ME92026662022-12-07 13:07:3044.3317-0.642645994814170Clb=-7.5m/s 405.603MHz Type=M20 ser=107-2-02666 rdzTTGOsonde
F4IKIME92026662022-12-07 13:06:5644.3321-0.64619965014365Clb=-8.8m/s t=-57.9C h=0.0% p=130.1hPa 405.600 MHz Type=M20 ser=107-2-02666 Radiosonde
EA1JAY-15ME92026662022-12-07 13:06:5344.3321-0.646661844614391Clb=-7.9m/s 405.603MHz Type=M20 ser=107-2-02666 rdzTTGOsonde
F4IKIME92026662022-12-07 13:06:2044.3329-0.651411186114616Clb=-7.7m/s t=-59.4C h=0.0% p=124.9hPa 405.600 MHz Type=M20 ser=107-2-02666 Radiosonde
EA1JAY-15ME92026662022-12-07 13:06:1744.3331-0.6517711225714633Clb=-8.0m/s 405.603MHz Type=M20 ser=107-2-02666 rdzTTGOsonde
EA1JAY-15ME92026662022-12-07 13:05:4344.3342-0.656392894314871Clb=-7.7m/s 405.603MHz Type=M20 ser=107-2-02666 rdzTTGOsonde
EA1JAY-15ME92026662022-12-07 13:05:1444.3347-0.6594931144315030Clb=-7.8m/s 405.603MHz Type=M20 ser=107-2-02666 rdzTTGOsonde
EA1JAY-15ME92026662022-12-07 13:04:4344.3349-0.662165894315201Clb=-9.3m/s 405.603MHz Type=M20 ser=107-2-02666 rdzTTGOsonde
EA1JAY-15ME92026662022-12-07 13:04:1844.3346-0.6652621003515383Clb=-8.6m/s 405.603MHz Type=M20 ser=107-2-02666 rdzTTGOsonde
EA1JAY-15ME92026662022-12-07 13:03:5444.3362-0.6671671385015559Clb=-9.1m/s 405.603MHz Type=M20 ser=107-2-02666 rdzTTGOsonde
EA1JAY-15ME92026662022-12-07 13:03:2444.338-0.6701211013315768Clb=-8.8m/s 405.603MHz Type=M20 ser=107-2-02666 rdzTTGOsonde
EA1JAY-15ME92026662022-12-07 13:02:5544.3387-0.6722031135215965Clb=-9.2m/s 405.603MHz Type=M20 ser=107-2-02666 rdzTTGOsonde
EA1JAY-15ME92026662022-12-07 13:02:2844.3391-0.676128796716151Clb=-9.4m/s 405.603MHz Type=M20 ser=107-2-02666 rdzTTGOsonde
EA1JAY-15ME92026662022-12-07 13:01:5844.3384-0.6796591023016361Clb=-9.6m/s 405.603MHz Type=M20 ser=107-2-02666 rdzTTGOsonde
EA1JAY-15ME92026662022-12-07 13:01:2944.3387-0.6830461313716552Clb=-9.7m/s 405.603MHz Type=M20 ser=107-2-02666 rdzTTGOsonde
F4IPAME92026662022-12-07 13:00:0244.3417-0.69022617233Clb=-10.6m/s t=-60.9C h=0.0% p=81.2hPa 405.600 MHz Type=M20 ser=107-2-02666 Radiosonde